Time;durP1;ratioP1;P1;durP2;ratioP2;P2;SDS_P1;SDS_P2;PMS_P1;PMS_P2;Temp;Humidity;BMP_temperature;BMP_pressure;BME280_temperature;BME280_humidity;BME280_pressure;Samples;Min_cycle;Max_cycle;Signal;HPM_P1;HPM_P2
2022/05/19 00:01:15;;;;;;;7.43;2.20;;;;;;;15.88;49.56;96849.66;5089393;28;20502;-78
2022/05/19 00:03:42;;;;;;;6.47;2.88;;;;;;;15.81;49.82;96833.72;5089678;28;20503;-79
2022/05/19 00:06:11;;;;;;;6.03;2.45;;;;;;;15.70;49.79;96835.28;5089421;28;20503;-78
2022/05/19 00:08:38;;;;;;;6.05;2.65;;;;;;;15.56;49.52;96834.78;5093423;28;20044;-77
2022/05/19 00:11:07;;;;;;;6.30;2.78;;;;;;;15.47;50.09;96834.06;5093255;28;20043;-77
2022/05/19 00:13:34;;;;;;;3.65;2.40;;;;;;;15.40;50.03;96838.16;5093697;28;20043;-80
2022/05/19 00:16:00;;;;;;;4.35;2.33;;;;;;;15.35;50.75;96838.38;5092970;28;20052;-80
2022/05/19 00:18:27;;;;;;;2.58;2.00;;;;;;;15.32;51.09;96839.03;5093199;28;20047;-81
2022/05/19 00:20:54;;;;;;;6.00;2.28;;;;;;;15.22;50.95;96833.97;5093775;28;20131;-80
2022/05/19 00:23:23;;;;;;;4.30;2.50;;;;;;;15.16;50.94;96834.50;5092755;28;20048;-81
2022/05/19 00:25:49;;;;;;;4.57;2.30;;;;;;;15.13;51.30;96830.47;5093749;28;20040;-78
2022/05/19 00:28:16;;;;;;;3.65;2.35;;;;;;;15.02;51.28;96826.53;5092976;28;20044;-78
2022/05/19 00:30:43;;;;;;;5.40;2.45;;;;;;;14.99;51.53;96827.22;5093423;28;20469;-80
2022/05/19 00:33:10;;;;;;;8.90;2.60;;;;;;;14.95;51.63;96818.06;5092933;28;20076;-80
2022/05/19 00:35:37;;;;;;;5.20;2.30;;;;;;;14.91;51.81;96822.59;5093332;28;20074;-80
2022/05/19 00:38:04;;;;;;;4.63;2.20;;;;;;;14.89;51.93;96814.72;5092843;28;20051;-80
2022/05/19 00:40:32;;;;;;;2.65;2.10;;;;;;;14.86;51.67;96818.13;5093153;28;20044;-80
2022/05/19 00:42:59;;;;;;;6.05;2.42;;;;;;;14.90;52.62;96810.03;5093154;28;20494;-80
2022/05/19 00:45:28;;;;;;;9.30;2.67;;;;;;;14.88;52.52;96808.44;5092125;28;20040;-81
2022/05/19 00:48:02;;;;;;;8.90;2.60;;;;;;;14.82;51.83;96807.00;5092980;28;20055;-79
2022/05/19 00:50:33;;;;;;;4.50;2.45;;;;;;;14.81;52.63;96807.34;5092839;28;20048;-79
2022/05/19 00:53:08;;;;;;;4.32;2.30;;;;;;;14.76;52.42;96805.59;5093257;28;20051;-78
2022/05/19 00:55:42;;;;;;;4.65;2.60;;;;;;;14.70;52.24;96800.66;5092604;28;20044;-78
2022/05/19 00:58:15;;;;;;;5.30;2.40;;;;;;;14.65;51.96;96792.63;5092392;28;20059;-79
2022/05/19 01:00:43;;;;;;;4.15;2.50;;;;;;;14.60;52.99;96801.84;5093014;28;20051;-79
2022/05/19 01:03:10;;;;;;;5.22;2.58;;;;;;;14.57;52.51;96802.53;5092190;28;20070;-79
2022/05/19 01:05:39;;;;;;;7.07;2.20;;;;;;;14.50;52.57;96797.56;5092736;28;20093;-79
2022/05/19 01:08:12;;;;;;;7.47;2.75;;;;;;;14.47;52.77;96797.41;5092303;28;20122;-80
2022/05/19 01:10:41;;;;;;;4.93;2.53;;;;;;;14.49;52.84;96792.41;5092596;28;20413;-78
2022/05/19 01:13:08;;;;;;;5.50;2.53;;;;;;;14.49;53.15;96795.16;5092050;28;20055;-81
2022/05/19 01:15:38;;;;;;;6.10;2.30;;;;;;;14.52;53.11;96797.25;5092117;28;20051;-78
2022/05/19 01:18:05;;;;;;;4.25;2.10;;;;;;;14.52;52.85;96794.50;5091554;28;20040;-80
2022/05/19 01:20:32;;;;;;;6.18;2.20;;;;;;;14.60;53.40;96796.38;5092033;28;20051;-78
2022/05/19 01:23:05;;;;;;;4.25;2.17;;;;;;;14.66;53.37;96794.22;5092491;28;20603;-80
2022/05/19 01:25:40;;;;;;;6.20;2.67;;;;;;;14.65;52.92;96793.44;5091918;28;20070;-78
2022/05/19 01:28:08;;;;;;;2.85;2.20;;;;;;;14.71;53.71;96791.28;5091747;28;20048;-77
2022/05/19 01:30:35;;;;;;;3.80;2.33;;;;;;;14.70;53.06;96790.50;5092255;28;20044;-79
2022/05/19 01:33:02;;;;;;;4.07;2.05;;;;;;;14.75;53.58;96794.97;5091536;28;20055;-78
2022/05/19 01:35:33;;;;;;;4.63;2.10;;;;;;;14.81;53.92;96788.97;5091995;28;20498;-81
2022/05/19 01:38:00;;;;;;;6.75;2.33;;;;;;;14.83;53.93;96799.63;5092041;28;20055;-80
2022/05/19 01:40:41;;;;;;;4.43;2.33;;;;;;;14.85;52.88;96798.13;5091854;28;20047;-78
2022/05/19 01:43:19;;;;;;;4.40;2.20;;;;;;;14.89;52.17;96792.78;5091437;28;20048;-78
2022/05/19 01:45:59;;;;;;;3.40;2.13;;;;;;;14.88;52.49;96794.72;5092147;28;20052;-77
2022/05/19 01:48:33;;;;;;;4.15;2.20;;;;;;;14.87;52.66;96795.84;5091540;28;20051;-78
2022/05/19 01:51:07;;;;;;;5.88;2.20;;;;;;;14.86;53.48;96799.72;5091972;28;20051;-79
2022/05/19 01:53:39;;;;;;;5.85;2.10;;;;;;;14.83;53.17;96788.66;5091827;28;20036;-80
2022/05/19 01:56:14;;;;;;;7.70;2.55;;;;;;;14.81;53.92;96790.91;5091477;28;20044;-78
2022/05/19 01:58:49;;;;;;;3.47;2.08;;;;;;;14.77;53.65;96795.44;5091777;28;20043;-79
2022/05/19 02:01:19;;;;;;;5.22;2.15;;;;;;;14.72;54.45;96793.72;5091207;28;20047;-79
2022/05/19 02:03:52;;;;;;;7.93;1.80;;;;;;;14.61;51.51;96787.81;5091520;28;20044;-79
2022/05/19 02:06:25;;;;;;;3.72;1.73;;;;;;;14.53;51.17;96793.38;5091375;28;20048;-78
2022/05/19 02:08:55;;;;;;;5.18;2.53;;;;;;;14.49;51.32;96792.41;5091792;28;20058;-80
2022/05/19 02:11:29;;;;;;;5.68;1.70;;;;;;;14.46;50.92;96796.63;5090931;28;20048;-79
2022/05/19 02:14:00;;;;;;;3.90;1.63;;;;;;;14.45;51.23;96791.44;5091506;28;20068;-79
2022/05/19 02:16:30;;;;;;;3.75;2.00;;;;;;;14.43;50.95;96796.47;5090640;28;20047;-79
2022/05/19 02:18:57;;;;;;;6.63;1.85;;;;;;;14.46;52.52;96806.75;5091265;28;20543;-79
2022/05/19 02:21:24;;;;;;;3.05;1.90;;;;;;;14.45;51.45;96799.66;5090868;28;20411;-79
2022/05/19 02:23:51;;;;;;;3.58;1.75;;;;;;;14.40;51.38;96799.84;5090943;28;20406;-81
2022/05/19 02:26:17;;;;;;;3.25;1.67;;;;;;;14.35;50.33;96800.84;5090571;28;20044;-78
2022/05/19 02:28:49;;;;;;;3.47;1.70;;;;;;;14.27;49.84;96799.78;5091157;28;20050;-79
2022/05/19 02:31:17;;;;;;;3.88;1.70;;;;;;;14.28;50.07;96804.13;5090465;28;20047;-79
2022/05/19 02:33:44;;;;;;;3.70;1.70;;;;;;;14.24;50.38;96794.94;5090890;28;20521;-79
2022/05/19 02:36:11;;;;;;;3.67;2.20;;;;;;;14.28;51.06;96795.09;5090601;28;20044;-78
2022/05/19 02:41:59;;;;;;;5.20;1.58;;;;;;;14.32;53.33;96796.84;5090731;28;20096;-80
2022/05/19 02:44:26;;;;;;;4.32;1.98;;;;;;;14.34;54.00;96796.50;5087949;28;20040;-79
2022/05/19 02:46:54;;;;;;;7.22;2.00;;;;;;;14.38;52.74;96796.66;5090425;28;20048;-79
2022/05/19 02:49:23;;;;;;;4.07;1.90;;;;;;;14.42;51.66;96794.88;5090322;28;20040;-77
2022/05/19 02:51:49;;;;;;;5.93;1.85;;;;;;;14.42;51.23;96801.16;5090725;28;20059;-80
2022/05/19 02:54:20;;;;;;;3.53;1.92;;;;;;;14.39;51.53;96807.28;5090441;28;20048;-80
2022/05/19 02:56:47;;;;;;;7.07;1.90;;;;;;;14.38;51.93;96810.34;5090248;28;20044;-79
2022/05/19 02:59:13;;;;;;;3.92;1.95;;;;;;;14.35;52.68;96807.16;5090117;28;20044;-81
2022/05/19 03:01:40;;;;;;;6.70;2.05;;;;;;;14.33;53.17;96808.59;5090545;28;20044;-80
2022/05/19 03:04:08;;;;;;;4.68;1.80;;;;;;;14.31;53.86;96806.19;5090070;28;20656;-80
2022/05/19 03:06:34;;;;;;;3.67;1.70;;;;;;;14.29;53.28;96802.97;5090633;28;20040;-80
2022/05/19 03:09:01;;;;;;;3.63;2.15;;;;;;;14.26;54.47;96809.13;5090359;28;20455;-78
2022/05/19 03:11:27;;;;;;;4.90;2.10;;;;;;;14.20;53.61;96810.47;5090313;28;20051;-79
2022/05/19 03:13:54;;;;;;;7.28;2.00;;;;;;;14.15;52.87;96812.56;5089394;28;20048;-79
2022/05/19 03:16:20;;;;;;;4.03;2.13;;;;;;;14.08;52.73;96811.13;5089692;28;20048;-78
2022/05/19 03:18:47;;;;;;;5.38;2.10;;;;;;;14.06;53.37;96794.25;5090502;28;20048;-81
2022/05/19 03:21:15;;;;;;;5.03;1.92;;;;;;;14.05;53.75;96792.66;5089783;28;20044;-81
2022/05/19 03:23:41;;;;;;;6.32;1.95;;;;;;;13.99;52.73;96788.50;5090057;28;20055;-80
2022/05/19 03:26:07;;;;;;;3.83;2.17;;;;;;;14.01;53.95;96790.88;5089942;28;20043;-80
2022/05/19 03:28:34;;;;;;;3.78;2.00;;;;;;;14.00;52.25;96789.28;5090311;28;20048;-81
2022/05/19 03:31:01;;;;;;;4.72;2.00;;;;;;;14.00;53.44;96789.28;5090193;28;20462;-80
2022/05/19 03:33:27;;;;;;;4.45;1.60;;;;;;;14.00;51.12;96794.75;5090026;28;20043;-80
2022/05/19 03:35:57;;;;;;;4.85;2.08;;;;;;;14.00;51.51;96795.56;5090130;28;20044;-81
2022/05/19 03:38:26;;;;;;;4.13;1.65;;;;;;;13.97;52.69;96796.22;5089495;28;20044;-80
2022/05/19 03:40:53;;;;;;;4.93;1.80;;;;;;;13.96;52.29;96793.81;5090061;28;20580;-79
2022/05/19 03:43:20;;;;;;;5.20;1.50;;;;;;;13.94;52.47;96790.59;5087614;28;20047;-79
2022/05/19 03:45:46;;;;;;;3.85;1.50;;;;;;;13.92;52.17;96793.66;5090074;28;20052;-78
2022/05/19 03:48:13;;;;;;;2.35;1.52;;;;;;;13.87;50.33;96790.28;5089590;28;20055;-78
2022/05/19 03:50:44;;;;;;;3.33;1.80;;;;;;;13.77;49.49;96796.94;5089890;28;20036;-79
2022/05/19 03:53:11;;;;;;;3.90;2.03;;;;;;;13.78;51.01;96793.88;5089300;28;20058;-79
2022/05/19 03:55:39;;;;;;;4.40;1.60;;;;;;;13.79;50.79;96795.50;5089907;28;20411;-80
2022/05/19 03:58:06;;;;;;;5.00;1.60;;;;;;;13.76;50.70;96801.59;5089469;28;20560;-78
2022/05/19 04:00:34;;;;;;;4.43;1.73;;;;;;;13.80;51.81;96802.56;5090016;28;20044;-79
2022/05/19 04:03:00;;;;;;;3.50;1.63;;;;;;;13.83;50.96;96809.31;5090066;28;20070;-79
2022/05/19 04:05:28;;;;;;;4.53;1.88;;;;;;;13.85;51.24;96804.31;5089324;28;20513;-78
2022/05/19 04:07:54;;;;;;;4.57;1.70;;;;;;;13.90;51.87;96811.56;5089688;28;20044;-79
2022/05/19 04:10:21;;;;;;;4.68;1.70;;;;;;;13.92;52.55;96803.81;5089369;28;25007;-78
2022/05/19 04:12:49;;;;;;;8.30;1.90;;;;;;;13.93;51.50;96800.72;5088485;28;21735;-80
2022/05/19 04:15:15;;;;;;;6.85;1.58;;;;;;;13.95;51.75;96808.63;5089410;28;20693;-79
2022/05/19 04:17:42;;;;;;;7.80;2.00;;;;;;;13.97;51.41;96817.31;5089543;28;20047;-79
2022/05/19 04:20:11;;;;;;;4.50;1.80;;;;;;;13.97;51.36;96811.84;5089028;28;20052;-79
2022/05/19 04:22:38;;;;;;;10.25;2.15;;;;;;;13.97;51.56;96809.09;5089762;28;20062;-78
2022/05/19 04:25:05;;;;;;;6.22;1.65;;;;;;;14.00;51.43;96816.66;5089224;28;20513;-79
2022/05/19 04:27:31;;;;;;;3.55;1.80;;;;;;;13.98;51.77;96810.69;5089781;28;20047;-78
2022/05/19 04:29:59;;;;;;;5.00;1.77;;;;;;;13.98;52.55;96810.69;5089709;28;20044;-79
2022/05/19 04:32:26;;;;;;;9.77;1.67;;;;;;;13.99;53.15;96806.81;5089391;28;20047;-79
2022/05/19 04:34:53;;;;;;;7.40;2.20;;;;;;;13.99;52.19;96810.38;5087508;28;20059;-79
2022/05/19 04:37:19;;;;;;;5.82;2.05;;;;;;;14.03;52.56;96816.00;5088592;28;20048;-78
2022/05/19 04:39:46;;;;;;;3.83;1.60;;;;;;;14.03;51.17;96821.47;5089640;28;20043;-79
2022/05/19 04:42:13;;;;;;;6.63;1.80;;;;;;;14.04;50.30;96823.06;5089012;28;20057;-79
2022/05/19 04:44:40;;;;;;;3.97;1.35;;;;;;;14.04;50.05;96828.53;5088184;28;20047;-80
2022/05/19 04:47:08;;;;;;;7.18;3.03;;;;;;;14.08;49.67;96829.50;5089044;28;20055;-78
2022/05/19 04:49:35;;;;;;;6.88;2.38;;;;;;;14.10;49.90;96827.25;5089570;28;20039;-78
2022/05/19 04:52:01;;;;;;;11.98;2.22;;;;;;;14.11;51.35;96828.84;5088983;28;20052;-76
2022/05/19 04:54:28;;;;;;;13.55;1.95;;;;;;;14.10;50.80;96830.00;5090953;28;20047;-79
2022/05/19 04:56:54;;;;;;;4.30;1.83;;;;;;;14.07;50.16;96822.44;5093062;28;20055;-79
2022/05/19 04:59:21;;;;;;;4.15;1.50;;;;;;;14.09;51.21;96820.16;5092362;28;20040;-79
2022/05/19 05:01:49;;;;;;;3.00;2.00;;;;;;;14.01;49.37;96823.75;5092947;28;20048;-80
2022/05/19 05:04:19;;;;;;;8.38;1.98;;;;;;;14.05;50.74;96824.69;5092441;28;20522;-79
2022/05/19 05:06:45;;;;;;;9.27;1.83;;;;;;;14.00;49.03;96822.94;5092787;28;20086;-79
2022/05/19 05:09:13;;;;;;;4.35;1.77;;;;;;;14.02;49.50;96819.88;5092279;28;20052;-79
2022/05/19 05:11:41;;;;;;;4.93;1.83;;;;;;;14.01;50.11;96815.53;5092570;28;20043;-79
2022/05/19 05:14:07;;;;;;;7.18;1.67;;;;;;;14.00;50.36;96817.47;5090628;28;20093;-79
2022/05/19 05:16:36;;;;;;;6.10;1.77;;;;;;;14.00;51.05;96816.66;5092318;28;20071;-79
2022/05/19 05:19:04;;;;;;;3.75;1.80;;;;;;;14.00;50.44;96824.88;5092095;28;20051;-79
2022/05/19 05:21:32;;;;;;;8.10;2.22;;;;;;;14.07;51.19;96823.22;5092536;28;20052;-79
2022/05/19 05:23:58;;;;;;;7.63;1.85;;;;;;;14.19;52.73;96830.75;5092239;28;20066;-79
2022/05/19 05:26:25;;;;;;;6.95;2.20;;;;;;;14.24;51.81;96836.03;5091949;28;20036;-78
2022/05/19 05:28:52;;;;;;;4.15;1.70;;;;;;;14.17;49.05;96835.75;5092238;28;20059;-78
2022/05/19 05:31:18;;;;;;;2.83;1.60;;;;;;;14.24;51.58;96836.03;5091726;28;20052;-79
2022/05/19 05:33:45;;;;;;;8.13;1.88;;;;;;;14.26;51.02;96835.72;5092144;28;20055;-78
2022/05/19 05:36:11;;;;;;;5.25;1.83;;;;;;;14.17;50.71;96838.50;5091704;28;20055;-78
2022/05/19 05:38:40;;;;;;;3.55;1.80;;;;;;;14.27;51.82;96837.31;5092396;28;20047;-79
2022/05/19 05:41:07;;;;;;;4.85;2.08;;;;;;;14.34;51.21;96845.81;5091710;28;20056;-78
2022/05/19 05:43:35;;;;;;;4.30;2.00;;;;;;;14.43;51.37;96841.09;5090659;28;20514;-78
2022/05/19 05:46:07;;;;;;;3.78;1.98;;;;;;;14.54;52.08;96836.88;5091530;28;20047;-77
2022/05/19 05:48:36;;;;;;;8.57;1.75;;;;;;;14.68;52.22;96850.34;5091741;28;20063;-80
2022/05/19 05:51:04;;;;;;;4.15;2.08;;;;;;;14.78;53.00;96840.94;5091073;28;20040;-78
2022/05/19 05:53:30;;;;;;;4.72;1.98;;;;;;;14.88;52.59;96846.03;5091752;28;20055;-79
2022/05/19 05:55:58;;;;;;;7.22;2.20;;;;;;;14.88;49.28;96851.50;5091364;28;20048;-79
2022/05/19 05:58:25;;;;;;;5.70;2.22;;;;;;;14.85;49.86;96860.38;5091203;28;20036;-77
2022/05/19 06:00:52;;;;;;;6.20;2.13;;;;;;;14.86;49.54;96842.78;5091766;28;20059;-78
2022/05/19 06:03:18;;;;;;;8.40;2.00;;;;;;;14.90;50.30;96848.41;5091003;28;20666;-78
2022/05/19 06:05:45;;;;;;;3.67;2.00;;;;;;;15.01;51.54;96844.13;5091030;28;20052;-77
2022/05/19 06:08:11;;;;;;;5.43;2.20;;;;;;;15.14;52.21;96840.34;5091188;28;20044;-78
2022/05/19 06:10:38;;;;;;;4.10;2.17;;;;;;;15.25;52.07;96848.97;5091487;28;20046;-78
2022/05/19 06:13:06;;;;;;;6.13;1.80;;;;;;;15.29;51.47;96860.84;5089765;28;20039;-78
2022/05/19 06:15:33;;;;;;;12.20;2.60;;;;;;;15.35;50.53;96854.03;5091331;28;20047;-79
2022/05/19 06:17:59;;;;;;;10.38;2.38;;;;;;;15.43;50.86;96849.59;5091458;28;20044;-79
2022/05/19 06:20:26;;;;;;;3.28;2.13;;;;;;;15.37;50.91;96849.81;5090815;28;20047;-80
2022/05/19 06:22:53;;;;;;;6.57;2.15;;;;;;;15.46;51.51;96851.69;5090920;28;20060;-78
2022/05/19 06:25:22;;;;;;;8.30;2.33;;;;;;;15.53;51.65;96851.91;5090593;28;20509;-79
2022/05/19 06:27:50;;;;;;;5.00;2.08;;;;;;;15.63;52.04;96854.28;5091236;28;20044;-79
2022/05/19 06:30:19;;;;;;;3.92;2.03;;;;;;;15.74;52.36;96852.69;5090878;28;20127;-78
2022/05/19 06:32:47;;;;;;;6.30;2.15;;;;;;;15.78;51.82;96856.38;5090668;28;20075;-79
2022/05/19 06:35:16;;;;;;;4.28;2.15;;;;;;;15.93;52.11;96856.88;5090742;28;20048;-79
2022/05/19 06:37:43;;;;;;;4.07;2.45;;;;;;;15.94;51.72;96863.97;5091356;28;20047;-78
2022/05/19 06:40:13;;;;;;;10.10;2.72;;;;;;;15.98;51.56;96864.91;5088913;28;20140;-79
2022/05/19 06:42:40;;;;;;;6.60;4.10;;;;;;;16.05;52.29;96860.44;5090780;28;20044;-79
2022/05/19 06:45:07;;;;;;;6.30;2.47;;;;;;;16.12;52.48;96857.13;5090346;28;20050;-80
2022/05/19 06:47:36;;;;;;;7.57;2.20;;;;;;;16.18;52.27;96859.31;5090852;28;20040;-79
2022/05/19 06:50:05;;;;;;;5.72;2.80;;;;;;;16.29;52.39;96859.69;5090363;28;20051;-79
2022/05/19 06:52:33;;;;;;;5.85;2.53;;;;;;;16.46;53.43;96857.84;5090604;28;20555;-79
2022/05/19 06:55:02;;;;;;;5.25;2.30;;;;;;;16.49;52.19;96851.66;5090465;28;20056;-78
2022/05/19 06:57:31;;;;;;;7.32;2.40;;;;;;;16.61;53.22;96854.41;5090474;28;20031;-79
2022/05/19 06:59:58;;;;;;;9.68;3.10;;;;;;;16.73;53.23;96861.88;5090682;28;20048;-78
2022/05/19 07:02:26;;;;;;;4.03;2.50;;;;;;;16.79;53.24;96861.28;5089761;28;20048;-79
2022/05/19 07:04:54;;;;;;;6.43;2.85;;;;;;;16.82;51.85;96849.59;5090530;28;20052;-79
2022/05/19 07:07:21;;;;;;;6.50;2.70;;;;;;;16.86;51.22;96853.28;5089873;28;20700;-78
2022/05/19 07:09:47;;;;;;;6.28;2.67;;;;;;;16.85;51.74;96851.66;5089740;28;20040;-78
2022/05/19 07:12:21;;;;;;;3.70;2.50;;;;;;;16.94;52.49;96849.56;5089945;28;20051;-79
2022/05/19 07:14:48;;;;;;;3.38;2.40;;;;;;;17.13;52.48;96853.66;5088854;28;20047;-78
2022/05/19 07:17:15;;;;;;;7.65;2.63;;;;;;;17.28;52.68;96855.69;5088461;28;20072;-80
2022/05/19 07:22:27;;;;;;;6.13;2.60;;;;;;;17.46;53.01;96862.50;5090092;28;20113;-79
2022/05/19 07:24:53;;;;;;;5.18;2.60;;;;;;;17.59;53.16;96856.91;5089839;28;20414;-78
2022/05/19 07:27:20;;;;;;;8.07;2.67;;;;;;;17.67;53.83;96845.75;5089803;28;20062;-79
2022/05/19 07:29:47;;;;;;;5.45;2.80;;;;;;;17.81;52.64;96850.09;5090249;28;20422;-79
2022/05/19 07:32:13;;;;;;;5.05;2.63;;;;;;;17.90;52.94;96848.75;5089850;28;20051;-80
2022/05/19 07:34:41;;;;;;;6.28;2.95;;;;;;;17.96;52.88;96846.56;5089730;28;20073;-79
2022/05/19 07:37:08;;;;;;;5.43;2.88;;;;;;;18.10;52.77;96846.13;5089223;28;20048;-78
2022/05/19 07:39:36;;;;;;;12.10;3.17;;;;;;;18.07;52.08;96852.34;5089677;28;20168;-79
2022/05/19 07:42:03;;;;;;;4.10;2.85;;;;;;;18.18;52.59;96847.91;5088963;28;20047;-79
2022/05/19 07:44:30;;;;;;;4.00;2.80;;;;;;;18.39;54.12;96853.97;5090256;28;20048;-79
2022/05/19 07:46:57;;;;;;;6.57;3.60;;;;;;;18.57;52.98;96859.09;5090141;28;20453;-79
2022/05/19 07:49:24;;;;;;;9.00;3.15;;;;;;;18.61;51.95;96854.47;5089787;28;20043;-79
2022/05/19 07:51:50;;;;;;;7.20;3.10;;;;;;;18.79;54.75;96855.69;5090191;28;20450;-79
2022/05/19 07:54:19;;;;;;;4.22;2.40;;;;;;;19.00;54.58;96850.69;5089653;28;20059;-78
2022/05/19 07:56:48;;;;;;;5.13;2.70;;;;;;;19.47;53.28;96858.00;5089944;28;20048;-79
2022/05/19 07:59:15;;;;;;;5.63;3.00;;;;;;;20.64;50.68;96857.78;5089462;28;20055;-79
2022/05/19 08:01:44;;;;;;;5.70;2.72;;;;;;;21.74;47.99;96852.97;5089982;28;20064;-79
2022/05/19 08:04:11;;;;;;;7.65;3.33;;;;;;;22.42;44.87;96851.69;5089382;28;20051;-79
2022/05/19 08:06:39;;;;;;;6.97;3.00;;;;;;;22.76;43.36;96851.56;5089900;28;20040;-79
2022/05/19 08:10:20;;;;;;;8.25;2.75;;;;;;;22.86;45.69;96850.84;5089621;28;20044;-79
2022/05/19 08:11:55;;;;;;;4.25;2.47;;;;;;;23.01;43.59;96852.56;5088908;28;20082;-80
2022/05/19 08:17:10;;;;;;;7.60;2.60;;;;;;;23.35;43.09;96846.81;5088891;28;20544;-79
2022/05/19 08:19:36;;;;;;;4.90;3.15;;;;;;;23.37;43.25;96852.75;5089535;28;20101;-79
2022/05/19 08:22:03;;;;;;;5.40;2.35;;;;;;;23.44;43.59;96858.38;5088765;28;20079;-80
2022/05/19 08:24:30;;;;;;;6.18;2.72;;;;;;;23.51;45.08;96847.28;5089712;28;20048;-79
2022/05/19 08:26:59;;;;;;;4.75;2.85;;;;;;;23.28;43.11;96849.53;5089643;28;20052;-79
2022/05/19 08:29:26;;;;;;;5.95;2.53;;;;;;;23.45;47.64;96848.84;5092355;28;20044;-79
2022/05/19 08:31:53;;;;;;;8.00;3.25;;;;;;;23.71;45.96;96849.78;5093799;28;20413;-78
2022/05/19 08:34:20;;;;;;;3.58;2.40;;;;;;;23.71;43.12;96852.56;5082167;28;20430;-78
2022/05/19 08:36:47;;;;;;;4.78;2.80;;;;;;;23.80;44.92;96850.19;5093613;28;20134;-78
2022/05/19 08:39:14;;;;;;;4.65;2.80;;;;;;;23.99;45.49;96855.41;5093137;28;20059;-78
2022/05/19 08:41:46;;;;;;;5.32;2.90;;;;;;;24.08;44.85;96855.84;5092507;28;20051;-79
2022/05/19 08:44:18;;;;;;;3.70;2.60;;;;;;;24.21;43.09;96857.03;5093154;28;20048;-79
2022/05/19 08:46:48;;;;;;;5.95;3.17;;;;;;;24.29;43.64;96851.50;5093844;28;20278;-80
2022/05/19 08:49:18;;;;;;;4.82;3.22;;;;;;;24.29;43.61;96846.72;5092936;28;20048;-80
2022/05/19 08:51:52;;;;;;;6.88;3.13;;;;;;;24.20;41.91;96843.53;5082764;28;20437;-80
2022/05/19 08:54:23;;;;;;;4.65;2.60;;;;;;;24.33;46.57;96836.41;5092001;28;20051;-80
2022/05/19 08:56:57;;;;;;;9.88;3.53;;;;;;;24.37;47.28;96836.41;5093146;28;20144;-80
2022/05/19 08:59:35;;;;;;;7.57;2.88;;;;;;;24.55;46.16;96842.78;5092403;28;20501;-81
2022/05/19 09:02:07;;;;;;;6.10;2.58;;;;;;;24.60;42.73;96845.19;5092396;28;20055;-78
2022/05/19 09:04:49;;;;;;;5.95;2.92;;;;;;;24.72;44.77;96833.63;5092942;28;20131;-80
2022/05/19 09:10:21;;;;;;;10.10;3.10;;;;;;;25.01;44.16;96839.19;5091709;28;20086;-79
2022/05/19 09:12:55;;;;;;;5.27;3.57;;;;;;;25.03;43.01;96845.13;5092699;28;20502;-80
2022/05/19 09:15:23;;;;;;;6.45;3.30;;;;;;;25.08;43.28;96835.59;5092293;28;20340;-80
2022/05/19 09:17:50;;;;;;;5.57;3.30;;;;;;;24.99;43.06;96838.78;5092579;28;20051;-80
2022/05/19 09:20:23;;;;;;;7.68;3.20;;;;;;;24.94;46.17;96831.59;5092331;28;20052;-80
2022/05/19 09:22:49;;;;;;;7.70;3.10;;;;;;;25.04;48.08;96818.84;5092565;28;20055;-81
2022/05/19 09:25:19;;;;;;;5.50;2.85;;;;;;;25.21;47.52;96832.00;5091749;28;20253;-80
2022/05/19 09:27:51;;;;;;;6.47;3.38;;;;;;;25.33;44.07;96830.75;5092768;28;20044;-80
2022/05/19 09:30:35;;;;;;;4.70;2.67;;;;;;;25.55;44.92;96827.91;5091939;28;20170;-80
2022/05/19 09:33:07;;;;;;;6.18;2.90;;;;;;;25.76;45.20;96820.25;5092174;28;20047;-78
2022/05/19 09:35:39;;;;;;;5.43;3.63;;;;;;;25.86;42.08;96826.19;5092414;28;20502;-79
2022/05/19 09:38:12;;;;;;;5.07;2.80;;;;;;;25.93;46.35;96823.34;5091744;28;20101;-80
2022/05/19 09:40:40;;;;;;;7.35;2.90;;;;;;;26.08;45.28;96824.84;5091082;28;20051;-81
2022/05/19 09:43:15;;;;;;;6.57;3.13;;;;;;;25.88;42.52;96820.97;5091920;28;20055;-81
2022/05/19 09:45:47;;;;;;;4.78;2.72;;;;;;;25.99;42.19;96824.50;5092454;28;20055;-80
2022/05/19 09:48:14;;;;;;;4.25;2.90;;;;;;;26.17;45.01;96827.19;5091839;28;20044;-80
2022/05/19 09:50:44;;;;;;;3.53;2.83;;;;;;;26.19;41.53;96819.19;5092432;28;20036;-80
2022/05/19 09:53:15;;;;;;;5.63;3.03;;;;;;;26.26;41.29;96825.53;5092158;28;20074;-79
2022/05/19 09:55:41;;;;;;;6.65;3.10;;;;;;;26.29;43.45;96830.28;5092122;28;20047;-81
2022/05/19 09:58:10;;;;;;;5.57;2.80;;;;;;;26.39;41.98;96825.81;5091488;28;20136;-80
2022/05/19 10:00:43;;;;;;;7.43;2.95;;;;;;;26.56;44.30;96823.31;5091902;28;20048;-80
2022/05/19 10:03:18;;;;;;;8.52;3.55;;;;;;;26.63;44.41;96820.50;5096135;28;20445;-80
2022/05/19 10:05:50;;;;;;;6.07;3.38;;;;;;;26.56;40.95;96818.53;5092827;28;20047;-81
2022/05/19 10:08:20;;;;;;;17.50;3.60;;;;;;;26.59;48.10;96814.94;5094613;28;20059;-81
2022/05/19 10:10:56;;;;;;;5.97;3.30;;;;;;;26.37;41.50;96805.13;5098226;28;20448;-82
2022/05/19 10:13:27;;;;;;;7.28;3.10;;;;;;;26.27;45.96;96807.56;5094079;28;20040;-81
2022/05/19 10:15:59;;;;;;;5.65;3.20;;;;;;;26.42;42.78;96804.72;5094116;28;20044;-80
2022/05/19 10:18:41;;;;;;;6.30;3.47;;;;;;;26.05;40.03;96810.91;5084169;28;20048;-81
2022/05/19 10:21:20;;;;;;;6.07;3.47;;;;;;;25.76;42.59;96805.50;5091878;28;20064;-78
2022/05/19 10:23:58;;;;;;;9.57;3.33;;;;;;;26.02;48.63;96804.16;5091841;28;20055;-79
2022/05/19 10:26:39;;;;;;;8.60;3.72;;;;;;;26.24;45.63;96799.22;5091080;28;20114;-81
2022/05/19 10:32:40;;;;;;;5.90;3.35;;;;;;;26.41;45.36;96803.06;5090872;28;20513;-79
2022/05/19 10:35:16;;;;;;;8.65;3.15;;;;;;;26.52;45.27;96792.66;5079933;28;20048;-78
2022/05/19 10:37:57;;;;;;;9.75;3.28;;;;;;;26.64;44.52;96802.53;5091136;28;20044;-80
2022/05/19 10:40:41;;;;;;;8.88;3.60;;;;;;;26.73;41.48;96789.66;5089910;28;20044;-80
2022/05/19 10:43:24;;;;;;;6.65;3.20;;;;;;;26.76;42.32;96788.81;5079576;28;20052;-79
2022/05/19 10:45:56;;;;;;;5.13;3.30;;;;;;;26.70;42.98;96782.09;5090526;28;20044;-79
2022/05/19 10:49:02;;;;;;;5.53;3.15;;;;;;;26.90;45.38;96778.72;5090283;28;20043;-80
2022/05/19 10:51:45;;;;;;;7.93;3.70;;;;;;;26.84;44.74;96780.38;5076829;28;20616;-81
2022/05/19 10:54:19;;;;;;;;;;;;;;;26.74;46.64;96782.06;5090478;28;20068;-80
2022/05/19 10:57:07;;;;;;;6.97;3.40;;;;;;;26.72;44.98;96778.88;5090577;28;19921;-81
2022/05/19 10:59:48;;;;;;;6.63;3.80;;;;;;;26.86;41.45;96777.97;5086555;28;20040;-80
2022/05/19 11:02:43;;;;;;;4.88;3.63;;;;;;;26.91;42.24;96780.31;5089967;28;20044;-79
2022/05/19 11:05:22;;;;;;;7.18;3.67;;;;;;;26.99;42.00;96774.22;5089966;28;20131;-80
2022/05/19 11:08:01;;;;;;;5.78;4.07;;;;;;;26.99;42.27;96777.03;5090936;28;20135;-80
2022/05/19 11:10:44;;;;;;;9.80;4.03;;;;;;;27.08;46.56;96767.38;5090430;28;20040;-80
2022/05/19 11:13:26;;;;;;;7.93;4.05;;;;;;;27.29;41.17;96772.72;5089753;28;20067;-80
2022/05/19 11:16:03;;;;;;;6.03;3.92;;;;;;;27.29;41.54;96759.53;5090333;28;20047;-80
2022/05/19 11:18:34;;;;;;;8.32;3.80;;;;;;;27.34;43.22;96768.66;5089552;28;20056;-80
2022/05/19 11:21:07;;;;;;;6.47;3.75;;;;;;;27.46;41.83;96759.72;5090001;28;20055;-80
2022/05/19 11:23:46;;;;;;;6.65;3.25;;;;;;;27.29;41.44;96762.31;5089963;28;20055;-78
2022/05/19 11:26:24;;;;;;;5.65;3.50;;;;;;;27.28;41.19;96757.94;5089575;28;20040;-78
2022/05/19 11:28:58;;;;;;;8.85;3.20;;;;;;;27.29;43.23;96762.31;5090122;28;20047;-77
2022/05/19 11:31:40;;;;;;;9.45;3.58;;;;;;;27.39;41.50;96760.59;5089616;28;20105;-79
2022/05/19 11:34:18;;;;;;;6.68;3.58;;;;;;;27.44;43.75;96756.56;5089484;28;20071;-78
2022/05/19 11:36:50;;;;;;;8.52;3.58;;;;;;;27.52;42.62;96758.06;5090191;28;20055;-81
2022/05/19 11:39:24;;;;;;;5.97;3.58;;;;;;;27.45;41.90;96755.34;5089346;28;20510;-78
2022/05/19 11:41:54;;;;;;;8.73;3.88;;;;;;;27.53;44.03;96752.03;5089163;28;20055;-80
2022/05/19 11:44:26;;;;;;;6.75;3.10;;;;;;;27.71;42.29;96753.81;5089290;28;20048;-79
2022/05/19 11:47:00;;;;;;;8.88;3.80;;;;;;;27.69;43.84;96747.84;5089916;28;20113;-77
2022/05/19 11:55:19;;;;;;;10.63;4.38;;;;;;;27.57;42.53;96738.81;5088696;28;20051;-79
2022/05/19 11:57:52;;;;;;;7.22;3.47;;;;;;;27.71;42.05;96740.63;5087552;28;20686;-78
2022/05/19 12:00:24;;;;;;;4.93;2.72;;;;;;;27.81;45.36;96742.47;5088513;28;20044;-79
2022/05/19 12:02:56;;;;;;;7.57;3.08;;;;;;;27.83;39.96;96737.25;5089982;28;20051;-79
2022/05/19 12:05:31;;;;;;;6.68;3.88;;;;;;;27.77;45.36;96736.16;5092833;28;20509;-78
2022/05/19 12:08:06;;;;;;;3.85;3.13;;;;;;;27.75;42.61;96729.38;5093776;28;20056;-80